sensor_id;sensor_type;location;lat;lon;timestamp;P1;durP1;ratioP1;P2;durP2;ratioP2
13834;SDS011;6988;52.614;13.500;2022-12-15T00:01:01;75.17;;;36.23;;
13834;SDS011;6988;52.614;13.500;2022-12-15T00:06:12;64.40;;;34.10;;
13834;SDS011;6988;52.614;13.500;2022-12-15T00:11:22;69.03;;;35.60;;
13834;SDS011;6988;52.614;13.500;2022-12-15T00:16:31;63.73;;;34.70;;
13834;SDS011;6988;52.614;13.500;2022-12-15T00:21:42;62.43;;;32.17;;
13834;SDS011;6988;52.614;13.500;2022-12-15T00:26:52;64.10;;;31.83;;
13834;SDS011;6988;52.614;13.500;2022-12-15T00:32:05;55.47;;;29.43;;
13834;SDS011;6988;52.614;13.500;2022-12-15T00:37:15;60.83;;;31.10;;
13834;SDS011;6988;52.614;13.500;2022-12-15T00:42:25;63.73;;;32.17;;
13834;SDS011;6988;52.614;13.500;2022-12-15T00:47:17;57.20;;;32.13;;
13834;SDS011;6988;52.614;13.500;2022-12-15T00:52:09;60.27;;;30.93;;
13834;SDS011;6988;52.614;13.500;2022-12-15T00:57:22;59.77;;;30.27;;
13834;SDS011;6988;52.614;13.500;2022-12-15T01:02:32;63.53;;;30.83;;
13834;SDS011;6988;52.614;13.500;2022-12-15T01:07:41;59.47;;;30.90;;
13834;SDS011;6988;52.614;13.500;2022-12-15T01:12:52;63.03;;;30.90;;
13834;SDS011;6988;52.614;13.500;2022-12-15T01:18:01;55.97;;;29.70;;
13834;SDS011;6988;52.614;13.500;2022-12-15T01:23:10;58.17;;;30.03;;
13834;SDS011;6988;52.614;13.500;2022-12-15T01:28:04;62.87;;;29.10;;
13834;SDS011;6988;52.614;13.500;2022-12-15T01:32:56;55.43;;;28.60;;
13834;SDS011;6988;52.614;13.500;2022-12-15T01:37:48;56.27;;;29.40;;
13834;SDS011;6988;52.614;13.500;2022-12-15T01:42:40;58.83;;;29.17;;
13834;SDS011;6988;52.614;13.500;2022-12-15T01:47:33;54.07;;;28.30;;
13834;SDS011;6988;52.614;13.500;2022-12-15T01:52:25;54.47;;;29.57;;
13834;SDS011;6988;52.614;13.500;2022-12-15T01:57:18;54.40;;;29.83;;
13834;SDS011;6988;52.614;13.500;2022-12-15T02:02:15;58.00;;;28.37;;
13834;SDS011;6988;52.614;13.500;2022-12-15T02:07:12;55.57;;;28.77;;
13834;SDS011;6988;52.614;13.500;2022-12-15T02:12:09;55.60;;;28.67;;
13834;SDS011;6988;52.614;13.500;2022-12-15T02:17:21;59.90;;;31.93;;
13834;SDS011;6988;52.614;13.500;2022-12-15T02:22:31;63.57;;;31.70;;
13834;SDS011;6988;52.614;13.500;2022-12-15T02:27:49;69.20;;;34.33;;
13834;SDS011;6988;52.614;13.500;2022-12-15T02:32:54;70.27;;;36.73;;
13834;SDS011;6988;52.614;13.500;2022-12-15T02:37:56;63.30;;;32.97;;
13834;SDS011;6988;52.614;13.500;2022-12-15T02:42:49;67.63;;;35.40;;
13834;SDS011;6988;52.614;13.500;2022-12-15T02:47:46;68.10;;;36.23;;
13834;SDS011;6988;52.614;13.500;2022-12-15T02:52:56;62.77;;;34.33;;
13834;SDS011;6988;52.614;13.500;2022-12-15T02:58:07;64.53;;;32.53;;
13834;SDS011;6988;52.614;13.500;2022-12-15T03:03:10;61.00;;;32.30;;
13834;SDS011;6988;52.614;13.500;2022-12-15T03:08:09;68.23;;;32.43;;
13834;SDS011;6988;52.614;13.500;2022-12-15T03:13:00;66.80;;;31.73;;
13834;SDS011;6988;52.614;13.500;2022-12-15T03:17:52;61.73;;;32.40;;
13834;SDS011;6988;52.614;13.500;2022-12-15T03:22:45;56.80;;;30.63;;
13834;SDS011;6988;52.614;13.500;2022-12-15T03:27:37;63.50;;;31.07;;
13834;SDS011;6988;52.614;13.500;2022-12-15T03:32:29;60.40;;;30.50;;
13834;SDS011;6988;52.614;13.500;2022-12-15T03:37:21;62.30;;;31.70;;
13834;SDS011;6988;52.614;13.500;2022-12-15T03:42:15;64.73;;;32.07;;
13834;SDS011;6988;52.614;13.500;2022-12-15T03:47:27;59.50;;;30.00;;
13834;SDS011;6988;52.614;13.500;2022-12-15T03:52:19;59.83;;;30.03;;
13834;SDS011;6988;52.614;13.500;2022-12-15T03:57:11;67.53;;;31.20;;
13834;SDS011;6988;52.614;13.500;2022-12-15T04:02:04;60.10;;;30.70;;
13834;SDS011;6988;52.614;13.500;2022-12-15T04:06:56;59.80;;;29.90;;
13834;SDS011;6988;52.614;13.500;2022-12-15T04:11:47;62.33;;;31.57;;
13834;SDS011;6988;52.614;13.500;2022-12-15T04:16:40;65.33;;;32.23;;
13834;SDS011;6988;52.614;13.500;2022-12-15T04:21:33;64.70;;;32.30;;
13834;SDS011;6988;52.614;13.500;2022-12-15T04:26:25;67.77;;;32.97;;
13834;SDS011;6988;52.614;13.500;2022-12-15T04:31:35;69.87;;;35.27;;
13834;SDS011;6988;52.614;13.500;2022-12-15T04:36:46;71.00;;;33.07;;
13834;SDS011;6988;52.614;13.500;2022-12-15T04:42:00;78.07;;;34.50;;
13834;SDS011;6988;52.614;13.500;2022-12-15T04:47:10;86.53;;;36.60;;
13834;SDS011;6988;52.614;13.500;2022-12-15T04:52:21;96.90;;;36.53;;
13834;SDS011;6988;52.614;13.500;2022-12-15T04:57:31;93.10;;;38.53;;
13834;SDS011;6988;52.614;13.500;2022-12-15T05:02:41;91.87;;;39.53;;
13834;SDS011;6988;52.614;13.500;2022-12-15T05:07:54;73.30;;;36.03;;
13834;SDS011;6988;52.614;13.500;2022-12-15T05:13:06;71.03;;;35.93;;
13834;SDS011;6988;52.614;13.500;2022-12-15T05:18:16;65.63;;;33.83;;
13834;SDS011;6988;52.614;13.500;2022-12-15T05:23:28;69.53;;;35.50;;
13834;SDS011;6988;52.614;13.500;2022-12-15T05:28:37;66.77;;;36.17;;
13834;SDS011;6988;52.614;13.500;2022-12-15T05:33:47;67.47;;;34.30;;
13834;SDS011;6988;52.614;13.500;2022-12-15T05:38:40;71.37;;;35.37;;
13834;SDS011;6988;52.614;13.500;2022-12-15T05:43:32;67.87;;;34.70;;
13834;SDS011;6988;52.614;13.500;2022-12-15T05:48:25;70.50;;;33.70;;
13834;SDS011;6988;52.614;13.500;2022-12-15T05:53:17;69.40;;;36.30;;
13834;SDS011;6988;52.614;13.500;2022-12-15T05:58:11;69.87;;;37.20;;
13834;SDS011;6988;52.614;13.500;2022-12-15T06:03:02;70.00;;;35.87;;
13834;SDS011;6988;52.614;13.500;2022-12-15T06:07:54;69.00;;;36.77;;
13834;SDS011;6988;52.614;13.500;2022-12-15T06:12:46;69.27;;;35.77;;
13834;SDS011;6988;52.614;13.500;2022-12-15T06:17:40;75.27;;;37.20;;
13834;SDS011;6988;52.614;13.500;2022-12-15T06:22:31;66.17;;;35.07;;
13834;SDS011;6988;52.614;13.500;2022-12-15T06:27:23;67.93;;;34.63;;
13834;SDS011;6988;52.614;13.500;2022-12-15T06:32:15;69.20;;;35.87;;
13834;SDS011;6988;52.614;13.500;2022-12-15T06:37:08;71.70;;;36.10;;
13834;SDS011;6988;52.614;13.500;2022-12-15T06:42:00;64.53;;;33.67;;
13834;SDS011;6988;52.614;13.500;2022-12-15T06:46:52;66.83;;;35.37;;
13834;SDS011;6988;52.614;13.500;2022-12-15T06:51:44;66.43;;;34.80;;
13834;SDS011;6988;52.614;13.500;2022-12-15T06:56:40;62.33;;;34.47;;
13834;SDS011;6988;52.614;13.500;2022-12-15T07:01:32;58.23;;;30.93;;
13834;SDS011;6988;52.614;13.500;2022-12-15T07:06:24;61.23;;;33.13;;
13834;SDS011;6988;52.614;13.500;2022-12-15T07:11:17;61.33;;;32.13;;
13834;SDS011;6988;52.614;13.500;2022-12-15T07:16:11;57.70;;;30.43;;
13834;SDS011;6988;52.614;13.500;2022-12-15T07:21:04;56.60;;;28.50;;
13834;SDS011;6988;52.614;13.500;2022-12-15T07:26:00;52.63;;;27.83;;
13834;SDS011;6988;52.614;13.500;2022-12-15T07:30:53;56.93;;;27.53;;
13834;SDS011;6988;52.614;13.500;2022-12-15T07:35:52;51.30;;;25.90;;
13834;SDS011;6988;52.614;13.500;2022-12-15T07:40:44;62.80;;;30.07;;
13834;SDS011;6988;52.614;13.500;2022-12-15T07:45:36;60.70;;;30.30;;
13834;SDS011;6988;52.614;13.500;2022-12-15T07:50:28;57.17;;;28.83;;
13834;SDS011;6988;52.614;13.500;2022-12-15T07:55:21;53.73;;;27.33;;
13834;SDS011;6988;52.614;13.500;2022-12-15T08:00:14;55.90;;;27.70;;
13834;SDS011;6988;52.614;13.500;2022-12-15T08:05:08;52.20;;;27.93;;
13834;SDS011;6988;52.614;13.500;2022-12-15T08:10:00;55.00;;;27.27;;
13834;SDS011;6988;52.614;13.500;2022-12-15T08:14:54;62.03;;;28.40;;
13834;SDS011;6988;52.614;13.500;2022-12-15T08:19:46;56.53;;;28.37;;
13834;SDS011;6988;52.614;13.500;2022-12-15T08:24:37;56.37;;;28.77;;
13834;SDS011;6988;52.614;13.500;2022-12-15T08:29:30;55.77;;;29.53;;
13834;SDS011;6988;52.614;13.500;2022-12-15T08:34:23;57.87;;;28.77;;
13834;SDS011;6988;52.614;13.500;2022-12-15T08:39:15;58.57;;;28.10;;
13834;SDS011;6988;52.614;13.500;2022-12-15T08:44:07;59.90;;;29.70;;
13834;SDS011;6988;52.614;13.500;2022-12-15T08:48:59;58.53;;;29.33;;
13834;SDS011;6988;52.614;13.500;2022-12-15T08:53:54;58.10;;;29.17;;
13834;SDS011;6988;52.614;13.500;2022-12-15T08:58:48;55.87;;;29.50;;
13834;SDS011;6988;52.614;13.500;2022-12-15T09:03:45;58.70;;;28.07;;
13834;SDS011;6988;52.614;13.500;2022-12-15T09:08:38;59.00;;;30.33;;
13834;SDS011;6988;52.614;13.500;2022-12-15T09:13:33;58.50;;;29.27;;
13834;SDS011;6988;52.614;13.500;2022-12-15T09:18:25;54.20;;;29.00;;
13834;SDS011;6988;52.614;13.500;2022-12-15T09:23:17;53.17;;;27.90;;
13834;SDS011;6988;52.614;13.500;2022-12-15T09:28:10;53.27;;;29.30;;
13834;SDS011;6988;52.614;13.500;2022-12-15T09:33:05;59.30;;;29.83;;
13834;SDS011;6988;52.614;13.500;2022-12-15T09:37:57;53.60;;;30.17;;
13834;SDS011;6988;52.614;13.500;2022-12-15T09:42:50;54.80;;;29.07;;
13834;SDS011;6988;52.614;13.500;2022-12-15T09:47:46;53.53;;;29.23;;
13834;SDS011;6988;52.614;13.500;2022-12-15T09:52:50;52.63;;;28.87;;
13834;SDS011;6988;52.614;13.500;2022-12-15T09:57:46;50.80;;;28.87;;
13834;SDS011;6988;52.614;13.500;2022-12-15T10:02:58;52.97;;;29.23;;
13834;SDS011;6988;52.614;13.500;2022-12-15T10:08:30;55.20;;;29.40;;
13834;SDS011;6988;52.614;13.500;2022-12-15T10:13:30;53.80;;;30.03;;
13834;SDS011;6988;52.614;13.500;2022-12-15T10:18:36;51.67;;;29.93;;
13834;SDS011;6988;52.614;13.500;2022-12-15T10:23:39;57.67;;;30.43;;
13834;SDS011;6988;52.614;13.500;2022-12-15T10:28:38;55.13;;;31.17;;
13834;SDS011;6988;52.614;13.500;2022-12-15T10:33:53;52.67;;;31.17;;
13834;SDS011;6988;52.614;13.500;2022-12-15T10:38:52;54.07;;;30.73;;
13834;SDS011;6988;52.614;13.500;2022-12-15T10:43:45;50.53;;;29.10;;
13834;SDS011;6988;52.614;13.500;2022-12-15T10:48:39;47.37;;;28.30;;
13834;SDS011;6988;52.614;13.500;2022-12-15T10:53:34;47.37;;;29.47;;
13834;SDS011;6988;52.614;13.500;2022-12-15T10:58:44;49.57;;;29.40;;
13834;SDS011;6988;52.614;13.500;2022-12-15T11:03:38;44.43;;;28.37;;
13834;SDS011;6988;52.614;13.500;2022-12-15T11:08:30;49.40;;;29.13;;
13834;SDS011;6988;52.614;13.500;2022-12-15T11:13:22;50.07;;;30.20;;
13834;SDS011;6988;52.614;13.500;2022-12-15T11:18:17;51.03;;;28.67;;
13834;SDS011;6988;52.614;13.500;2022-12-15T11:23:38;48.77;;;30.27;;
13834;SDS011;6988;52.614;13.500;2022-12-15T11:28:42;48.40;;;29.53;;
13834;SDS011;6988;52.614;13.500;2022-12-15T11:33:43;51.13;;;30.57;;
13834;SDS011;6988;52.614;13.500;2022-12-15T11:38:38;47.67;;;34.33;;
13834;SDS011;6988;52.614;13.500;2022-12-15T11:43:42;51.80;;;30.70;;
13834;SDS011;6988;52.614;13.500;2022-12-15T11:49:07;46.03;;;29.07;;
13834;SDS011;6988;52.614;13.500;2022-12-15T11:54:26;51.07;;;30.93;;
13834;SDS011;6988;52.614;13.500;2022-12-15T11:59:36;50.13;;;30.20;;
13834;SDS011;6988;52.614;13.500;2022-12-15T12:04:50;45.17;;;30.03;;
13834;SDS011;6988;52.614;13.500;2022-12-15T12:10:08;46.80;;;29.70;;
13834;SDS011;6988;52.614;13.500;2022-12-15T12:15:23;45.97;;;28.40;;
13834;SDS011;6988;52.614;13.500;2022-12-15T12:20:24;43.80;;;29.47;;
13834;SDS011;6988;52.614;13.500;2022-12-15T12:25:26;45.97;;;30.90;;
13834;SDS011;6988;52.614;13.500;2022-12-15T12:30:24;44.67;;;29.37;;
13834;SDS011;6988;52.614;13.500;2022-12-15T12:35:26;44.90;;;28.17;;
13834;SDS011;6988;52.614;13.500;2022-12-15T12:40:30;42.60;;;28.50;;
13834;SDS011;6988;52.614;13.500;2022-12-15T12:45:37;49.10;;;29.77;;
13834;SDS011;6988;52.614;13.500;2022-12-15T12:50:41;42.40;;;28.37;;
13834;SDS011;6988;52.614;13.500;2022-12-15T12:55:35;44.77;;;28.80;;
13834;SDS011;6988;52.614;13.500;2022-12-15T13:00:31;45.70;;;28.77;;
13834;SDS011;6988;52.614;13.500;2022-12-15T13:05:27;44.57;;;28.53;;
13834;SDS011;6988;52.614;13.500;2022-12-15T13:10:23;44.20;;;27.57;;
13834;SDS011;6988;52.614;13.500;2022-12-15T13:15:17;44.47;;;29.67;;
13834;SDS011;6988;52.614;13.500;2022-12-15T13:20:26;42.07;;;27.77;;
13834;SDS011;6988;52.614;13.500;2022-12-15T13:25:37;41.77;;;27.27;;
13834;SDS011;6988;52.614;13.500;2022-12-15T13:30:31;45.90;;;28.67;;
13834;SDS011;6988;52.614;13.500;2022-12-15T13:35:24;44.03;;;26.47;;
13834;SDS011;6988;52.614;13.500;2022-12-15T13:40:26;38.30;;;26.30;;
13834;SDS011;6988;52.614;13.500;2022-12-15T13:45:48;39.03;;;26.00;;
13834;SDS011;6988;52.614;13.500;2022-12-15T13:50:45;40.40;;;26.20;;
13834;SDS011;6988;52.614;13.500;2022-12-15T13:55:52;40.80;;;26.17;;
13834;SDS011;6988;52.614;13.500;2022-12-15T14:00:53;42.73;;;26.17;;
13834;SDS011;6988;52.614;13.500;2022-12-15T14:05:48;38.20;;;25.57;;
13834;SDS011;6988;52.614;13.500;2022-12-15T14:10:43;42.67;;;27.60;;
13834;SDS011;6988;52.614;13.500;2022-12-15T14:15:40;46.90;;;28.73;;
13834;SDS011;6988;52.614;13.500;2022-12-15T14:20:38;43.13;;;29.00;;
13834;SDS011;6988;52.614;13.500;2022-12-15T14:25:31;45.33;;;29.73;;
13834;SDS011;6988;52.614;13.500;2022-12-15T14:30:23;43.07;;;29.40;;
13834;SDS011;6988;52.614;13.500;2022-12-15T14:35:20;44.20;;;28.97;;
13834;SDS011;6988;52.614;13.500;2022-12-15T14:40:20;45.17;;;29.20;;
13834;SDS011;6988;52.614;13.500;2022-12-15T14:45:17;44.93;;;30.60;;
13834;SDS011;6988;52.614;13.500;2022-12-15T14:50:13;46.23;;;30.67;;
13834;SDS011;6988;52.614;13.500;2022-12-15T14:55:25;47.27;;;29.47;;
13834;SDS011;6988;52.614;13.500;2022-12-15T15:00:25;51.13;;;33.37;;
13834;SDS011;6988;52.614;13.500;2022-12-15T15:05:23;58.17;;;37.70;;
13834;SDS011;6988;52.614;13.500;2022-12-15T15:10:20;53.47;;;33.53;;
13834;SDS011;6988;52.614;13.500;2022-12-15T15:15:19;49.67;;;29.50;;
13834;SDS011;6988;52.614;13.500;2022-12-15T15:20:17;45.60;;;29.07;;
13834;SDS011;6988;52.614;13.500;2022-12-15T15:25:27;54.13;;;32.33;;
13834;SDS011;6988;52.614;13.500;2022-12-15T15:30:28;49.80;;;35.53;;
13834;SDS011;6988;52.614;13.500;2022-12-15T15:35:32;51.47;;;35.60;;
13834;SDS011;6988;52.614;13.500;2022-12-15T15:40:26;50.17;;;35.07;;
13834;SDS011;6988;52.614;13.500;2022-12-15T15:45:18;61.07;;;34.13;;
13834;SDS011;6988;52.614;13.500;2022-12-15T15:50:11;60.30;;;33.30;;
13834;SDS011;6988;52.614;13.500;2022-12-15T15:55:05;54.43;;;32.83;;
13834;SDS011;6988;52.614;13.500;2022-12-15T16:00:11;53.03;;;31.97;;
13834;SDS011;6988;52.614;13.500;2022-12-15T16:05:08;51.47;;;31.23;;
13834;SDS011;6988;52.614;13.500;2022-12-15T16:10:00;49.10;;;28.83;;
13834;SDS011;6988;52.614;13.500;2022-12-15T16:14:53;48.67;;;30.27;;
13834;SDS011;6988;52.614;13.500;2022-12-15T16:19:47;46.60;;;28.83;;
13834;SDS011;6988;52.614;13.500;2022-12-15T16:24:39;46.63;;;28.13;;
13834;SDS011;6988;52.614;13.500;2022-12-15T16:29:32;45.43;;;27.37;;
13834;SDS011;6988;52.614;13.500;2022-12-15T16:34:24;45.10;;;28.37;;
13834;SDS011;6988;52.614;13.500;2022-12-15T16:39:21;49.20;;;29.63;;
13834;SDS011;6988;52.614;13.500;2022-12-15T16:44:16;49.73;;;30.13;;
13834;SDS011;6988;52.614;13.500;2022-12-15T16:49:08;46.20;;;28.20;;
13834;SDS011;6988;52.614;13.500;2022-12-15T16:54:00;50.23;;;29.40;;
13834;SDS011;6988;52.614;13.500;2022-12-15T16:58:54;47.40;;;30.53;;
13834;SDS011;6988;52.614;13.500;2022-12-15T17:03:46;48.90;;;29.47;;
13834;SDS011;6988;52.614;13.500;2022-12-15T17:08:39;53.07;;;29.17;;
13834;SDS011;6988;52.614;13.500;2022-12-15T17:13:38;47.27;;;28.70;;
13834;SDS011;6988;52.614;13.500;2022-12-15T17:18:32;44.27;;;27.83;;
13834;SDS011;6988;52.614;13.500;2022-12-15T17:23:24;49.77;;;28.77;;
13834;SDS011;6988;52.614;13.500;2022-12-15T17:28:18;50.53;;;29.07;;
13834;SDS011;6988;52.614;13.500;2022-12-15T17:33:17;46.77;;;28.13;;
13834;SDS011;6988;52.614;13.500;2022-12-15T17:38:14;49.13;;;30.47;;
13834;SDS011;6988;52.614;13.500;2022-12-15T17:43:10;49.43;;;29.27;;
13834;SDS011;6988;52.614;13.500;2022-12-15T17:48:04;52.27;;;30.57;;
13834;SDS011;6988;52.614;13.500;2022-12-15T17:52:57;48.67;;;29.77;;
13834;SDS011;6988;52.614;13.500;2022-12-15T17:57:51;52.20;;;29.80;;
13834;SDS011;6988;52.614;13.500;2022-12-15T18:02:45;51.43;;;29.67;;
13834;SDS011;6988;52.614;13.500;2022-12-15T18:07:37;69.20;;;41.07;;
13834;SDS011;6988;52.614;13.500;2022-12-15T18:12:30;53.13;;;32.73;;
13834;SDS011;6988;52.614;13.500;2022-12-15T18:17:26;50.77;;;30.27;;
13834;SDS011;6988;52.614;13.500;2022-12-15T18:22:19;50.40;;;30.53;;
13834;SDS011;6988;52.614;13.500;2022-12-15T18:27:16;49.63;;;28.90;;
13834;SDS011;6988;52.614;13.500;2022-12-15T18:32:12;51.80;;;28.37;;
13834;SDS011;6988;52.614;13.500;2022-12-15T18:37:08;52.50;;;29.47;;
13834;SDS011;6988;52.614;13.500;2022-12-15T18:42:07;49.73;;;28.30;;
13834;SDS011;6988;52.614;13.500;2022-12-15T18:47:04;48.70;;;29.37;;
13834;SDS011;6988;52.614;13.500;2022-12-15T18:52:09;48.57;;;28.53;;
13834;SDS011;6988;52.614;13.500;2022-12-15T18:57:09;48.03;;;29.70;;
13834;SDS011;6988;52.614;13.500;2022-12-15T19:02:18;47.87;;;28.27;;
13834;SDS011;6988;52.614;13.500;2022-12-15T19:07:11;49.27;;;28.53;;
13834;SDS011;6988;52.614;13.500;2022-12-15T19:12:04;49.00;;;30.10;;
13834;SDS011;6988;52.614;13.500;2022-12-15T19:17:10;52.13;;;30.97;;
13834;SDS011;6988;52.614;13.500;2022-12-15T19:22:23;51.87;;;30.27;;
13834;SDS011;6988;52.614;13.500;2022-12-15T19:27:19;46.20;;;29.03;;
13834;SDS011;6988;52.614;13.500;2022-12-15T19:32:15;48.57;;;29.17;;
13834;SDS011;6988;52.614;13.500;2022-12-15T19:37:09;49.37;;;28.80;;
13834;SDS011;6988;52.614;13.500;2022-12-15T19:42:11;54.57;;;30.07;;
13834;SDS011;6988;52.614;13.500;2022-12-15T19:47:10;52.30;;;30.90;;
13834;SDS011;6988;52.614;13.500;2022-12-15T19:52:03;54.00;;;30.43;;
13834;SDS011;6988;52.614;13.500;2022-12-15T19:56:56;55.30;;;32.40;;
13834;SDS011;6988;52.614;13.500;2022-12-15T20:01:49;55.40;;;30.77;;
13834;SDS011;6988;52.614;13.500;2022-12-15T20:06:41;59.07;;;33.37;;
13834;SDS011;6988;52.614;13.500;2022-12-15T20:11:34;51.03;;;30.50;;
13834;SDS011;6988;52.614;13.500;2022-12-15T20:16:27;55.47;;;32.43;;
13834;SDS011;6988;52.614;13.500;2022-12-15T20:21:21;58.17;;;31.77;;
13834;SDS011;6988;52.614;13.500;2022-12-15T20:26:23;55.83;;;32.03;;
13834;SDS011;6988;52.614;13.500;2022-12-15T20:31:17;60.17;;;32.67;;
13834;SDS011;6988;52.614;13.500;2022-12-15T20:36:12;50.10;;;31.10;;
13834;SDS011;6988;52.614;13.500;2022-12-15T20:41:27;51.10;;;29.30;;
13834;SDS011;6988;52.614;13.500;2022-12-15T20:46:20;53.77;;;30.73;;
13834;SDS011;6988;52.614;13.500;2022-12-15T20:51:15;54.43;;;31.63;;
13834;SDS011;6988;52.614;13.500;2022-12-15T20:56:13;48.67;;;30.53;;
13834;SDS011;6988;52.614;13.500;2022-12-15T21:01:11;50.87;;;29.93;;
13834;SDS011;6988;52.614;13.500;2022-12-15T21:06:11;56.60;;;33.77;;
13834;SDS011;6988;52.614;13.500;2022-12-15T21:11:06;55.00;;;32.53;;
13834;SDS011;6988;52.614;13.500;2022-12-15T21:16:05;52.73;;;30.93;;
13834;SDS011;6988;52.614;13.500;2022-12-15T21:21:08;55.17;;;30.90;;
13834;SDS011;6988;52.614;13.500;2022-12-15T21:26:09;52.40;;;29.77;;
13834;SDS011;6988;52.614;13.500;2022-12-15T21:31:01;54.57;;;30.10;;
13834;SDS011;6988;52.614;13.500;2022-12-15T21:35:55;57.77;;;32.00;;
13834;SDS011;6988;52.614;13.500;2022-12-15T21:40:47;56.77;;;31.87;;
13834;SDS011;6988;52.614;13.500;2022-12-15T21:45:39;52.60;;;30.10;;
13834;SDS011;6988;52.614;13.500;2022-12-15T21:50:31;54.03;;;30.33;;
13834;SDS011;6988;52.614;13.500;2022-12-15T21:55:25;52.27;;;29.23;;
13834;SDS011;6988;52.614;13.500;2022-12-15T22:00:19;50.73;;;29.87;;
13834;SDS011;6988;52.614;13.500;2022-12-15T22:05:14;50.37;;;29.30;;
13834;SDS011;6988;52.614;13.500;2022-12-15T22:10:10;52.50;;;30.30;;
13834;SDS011;6988;52.614;13.500;2022-12-15T22:15:05;53.30;;;29.27;;
13834;SDS011;6988;52.614;13.500;2022-12-15T22:20:11;51.07;;;29.67;;
13834;SDS011;6988;52.614;13.500;2022-12-15T22:25:06;54.83;;;30.60;;
13834;SDS011;6988;52.614;13.500;2022-12-15T22:30:12;52.47;;;29.83;;
13834;SDS011;6988;52.614;13.500;2022-12-15T22:35:11;46.47;;;27.53;;
13834;SDS011;6988;52.614;13.500;2022-12-15T22:40:06;50.03;;;29.73;;
13834;SDS011;6988;52.614;13.500;2022-12-15T22:44:59;49.50;;;29.13;;
13834;SDS011;6988;52.614;13.500;2022-12-15T23:04:29;58.93;;;30.07;;
13834;SDS011;6988;52.614;13.500;2022-12-15T23:09:24;49.63;;;29.50;;
13834;SDS011;6988;52.614;13.500;2022-12-15T23:14:16;53.70;;;29.50;;
13834;SDS011;6988;52.614;13.500;2022-12-15T23:19:30;54.13;;;30.67;;
13834;SDS011;6988;52.614;13.500;2022-12-15T23:24:22;54.83;;;29.80;;
13834;SDS011;6988;52.614;13.500;2022-12-15T23:29:14;52.77;;;29.43;;
13834;SDS011;6988;52.614;13.500;2022-12-15T23:34:06;52.90;;;28.10;;
13834;SDS011;6988;52.614;13.500;2022-12-15T23:39:00;51.80;;;28.20;;
13834;SDS011;6988;52.614;13.500;2022-12-15T23:43:53;48.73;;;27.00;;
13834;SDS011;6988;52.614;13.500;2022-12-15T23:48:46;52.27;;;28.67;;
13834;SDS011;6988;52.614;13.500;2022-12-15T23:53:38;55.23;;;28.63;;
13834;SDS011;6988;52.614;13.500;2022-12-15T23:58:32;51.10;;;29.00;;
